Terminal Aerodrome Forecast
Issued by NWS

Home | Current Version | Previous Version | Text Only | Print | Product List | Glossary On
Versions: 1 2 3 4 5 6 7 8 9 10 11 12 13 14 15 16 17 18 19 20 21 22 23 24 25 26 27 28 29 30 31
000
FTUS43 KDMX 200524
TAFOTM
TAF
KOTM 200524Z 2006/2106 20010G18KT P6SM SCT035 BKN250
     FM201100 24012KT P6SM VCTS SCT040CB BKN080
      TEMPO 2011/2014 4SM TSRA SCT020 BKN040CB
     FM201600 28010KT P6SM SCT040 SCT100=

USA.gov is the U.S. government's official web portal to all federal, state and local government web resources and services.